»·PEaware :: N678RH KSNA-KPHX

N678RH :: KSNA-KPHX

FLIGHT INFORMATION

Flight Status: Arrived
Operator: Privately registered:
United States
More flights under this callsign
Pilot: Steve A. (29522)
Aircraft: PILATUS PC-12 EAGLE
(PC12)
More flights by this aircraft type
Origin: KSNA John Wayne-Orange Co
United States
Destination: KPHX Phoenix Sky Harbor Intl
United States
More flights between these airports :: More routes between these airports
Route: +PIGGN3 CNERY BLH BLH5
File this flight plan on PilotEdge
Remarks:
Altitude:
(Current/Filed)
23,000ft
Speed:
(Current/Filed)
210kts
Departed: 15-May-20 04:56 PM
Arrived: 15-May-20 06:16 PM
Distance/Time
Traveled:
293nm/1:20
Distance/Time
To Go:
Arrived

Flight Plot

Page will automatically refresh every two minutes.

Flight plan parsing failed; only flown route is shown


Map Options




Map Legend


Flown Route
Filed Route
Departure Airport
Arrival Airport
Navaid (VOR, NDB)
Fix

Horizontal Profiles

Position Reports

Time Latitude Longitude Heading Altitude Ground
Speed
15-May-20 16:43 33.674953 -117.864951 118 60ft 0kts
15-May-20 16:44 33.674953 -117.864951 118 60ft 0kts
15-May-20 16:45 33.674953 -117.864951 118 60ft 0kts
15-May-20 16:46 33.674953 -117.864951 118 60ft 0kts
15-May-20 16:47 33.674953 -117.864951 118 60ft 0kts
15-May-20 16:48 33.674953 -117.864951 118 60ft 0kts
15-May-20 16:49 33.674953 -117.864951 118 60ft 0kts
15-May-20 16:50 33.674953 -117.864951 118 60ft 0kts
15-May-20 16:51 33.674950 -117.864946 122 60ft 0kts
15-May-20 16:52 33.676829 -117.864765 27 60ft 14kts
15-May-20 16:53 33.680677 -117.863178 299 60ft 14kts
15-May-20 16:54 33.681166 -117.864295 296 60ft 1kts
15-May-20 16:55 33.672933 -117.870519 205 105ft 113kts
15-May-20 16:56 33.639673 -117.888825 206 1206ft 154kts
15-May-20 16:57 33.591775 -117.901152 178 2604ft 196kts
15-May-20 16:58 33.540526 -117.879747 154 4397ft 201kts
15-May-20 16:59 33.500059 -117.836315 117 6032ft 201kts
15-May-20 17:00 33.477699 -117.775054 95 7732ft 201kts
15-May-20 17:01 33.480916 -117.705356 78 9052ft 221kts
15-May-20 17:02 33.509357 -117.638623 55 10380ft 223kts
15-May-20 17:03 33.540400 -117.574032 56 11484ft 228kts
15-May-20 17:04 33.571842 -117.507892 56 12480ft 233kts
15-May-20 17:05 33.566473 -117.430512 106 13474ft 245kts
15-May-20 17:06 33.542774 -117.353515 108 14480ft 247kts
15-May-20 17:07 33.518264 -117.275578 109 15465ft 249kts
15-May-20 17:08 33.504309 -117.195009 88 16345ft 251kts
15-May-20 17:09 33.502512 -117.110360 88 17149ft 255kts
15-May-20 17:10 33.500767 -117.024972 87 17954ft 257kts
15-May-20 17:11 33.498965 -116.939176 87 18751ft 259kts
15-May-20 17:12 33.497638 -116.852737 86 19540ft 260kts
15-May-20 17:13 33.496662 -116.765616 86 20318ft 263kts
15-May-20 17:14 33.495611 -116.677080 86 21095ft 266kts
15-May-20 17:15 33.494481 -116.588229 86 21863ft 268kts
15-May-20 17:16 33.493285 -116.498445 86 22623ft 270kts
15-May-20 17:17 33.492017 -116.405572 86 22813ft 288kts
15-May-20 17:18 33.490557 -116.308458 87 22754ft 291kts
15-May-20 17:19 33.489056 -116.211777 86 22754ft 290kts
15-May-20 17:20 33.487495 -116.115096 86 22755ft 290kts
15-May-20 17:21 33.490968 -116.019810 67 22760ft 282kts
15-May-20 17:22 33.516397 -115.930939 65 22755ft 281kts
15-May-20 17:23 33.542307 -115.842296 65 22756ft 282kts
15-May-20 17:24 33.568135 -115.753633 64 22756ft 282kts
15-May-20 17:25 33.593870 -115.665131 65 22756ft 280kts
15-May-20 17:26 33.617666 -115.576445 81 22756ft 285kts
15-May-20 17:27 33.615442 -115.480832 86 22756ft 286kts
15-May-20 17:28 33.613091 -115.385524 86 22757ft 286kts
15-May-20 17:29 33.610693 -115.289590 87 22753ft 286kts
15-May-20 17:30 33.608238 -115.194448 87 22754ft 286kts
15-May-20 17:31 33.605704 -115.099030 87 22754ft 286kts
15-May-20 17:32 33.603100 -115.003754 87 22755ft 286kts
15-May-20 17:33 33.600458 -114.908416 87 22782ft 285kts
15-May-20 17:35 33.566721 -114.829534 140 22815ft 296kts
15-May-20 17:36 33.573334 -114.747376 52 22811ft 271kts
15-May-20 17:37 33.595366 -114.663263 99 22816ft 290kts
15-May-20 17:38 33.582816 -114.568245 92 22810ft 288kts
15-May-20 17:39 33.573628 -114.472689 91 22811ft 288kts
15-May-20 17:40 33.564439 -114.377199 91 22811ft 288kts
15-May-20 17:41 33.555157 -114.281514 92 22808ft 288kts
15-May-20 17:42 33.545834 -114.186203 92 22808ft 287kts
15-May-20 17:43 33.536444 -114.090966 92 22809ft 287kts
15-May-20 17:44 33.527002 -113.995958 92 22809ft 288kts
15-May-20 17:45 33.517355 -113.900656 97 22807ft 289kts
15-May-20 17:46 33.481774 -113.813045 116 22810ft 294kts
15-May-20 17:47 33.443755 -113.729906 116 22100ft 284kts
15-May-20 17:48 33.405588 -113.646499 116 21380ft 285kts
15-May-20 17:49 33.367401 -113.563265 116 20688ft 285kts
15-May-20 17:50 33.329457 -113.480746 116 20018ft 283kts
15-May-20 17:50 33.297609 -113.411604 116 19478ft 286kts
15-May-20 17:52 33.268477 -113.308853 86 18750ft 280kts
15-May-20 17:52 33.269989 -113.233186 85 17695ft 267kts
15-May-20 17:53 33.272462 -113.144721 86 15775ft 269kts
15-May-20 17:55 33.275164 -113.040854 87 13606ft 265kts
15-May-20 17:55 33.276950 -112.968254 87 12201ft 259kts
15-May-20 17:56 33.279076 -112.883070 87 10564ft 255kts
15-May-20 17:57 33.281145 -112.798986 87 8954ft 251kts
15-May-20 17:58 33.283077 -112.716959 88 7642ft 239kts
15-May-20 17:59 33.284884 -112.639557 88 6998ft 238kts
15-May-20 18:00 33.286649 -112.557441 88 6993ft 250kts
15-May-20 18:01 33.288438 -112.473793 88 6995ft 252kts
15-May-20 18:02 33.290185 -112.389961 88 6993ft 253kts
15-May-20 18:03 33.291896 -112.305275 88 6992ft 254kts
15-May-20 18:04 33.293557 -112.220608 88 6992ft 255kts
15-May-20 18:05 33.295167 -112.135694 88 6992ft 255kts
15-May-20 18:06 33.296715 -112.050548 88 6992ft 255kts
15-May-20 18:07 33.298530 -111.965713 87 7017ft 254kts
15-May-20 18:08 33.304884 -111.882966 52 7026ft 250kts
15-May-20 18:09 33.366954 -111.868146 0 6223ft 216kts
15-May-20 18:10 33.422650 -111.866436 0 4727ft 192kts
15-May-20 18:11 33.445811 -111.899635 229 2881ft 184kts
15-May-20 18:12 33.428355 -111.940683 278 2136ft 113kts
15-May-20 18:13 33.428839 -111.975181 272 1594ft 110kts
15-May-20 18:14 33.428818 -112.008444 270 1117ft 62kts
15-May-20 18:15 33.428007 -112.016560 178 1115ft 6kts
15-May-20 18:16 33.427757 -112.019080 268 1113ft 15kts
15-May-20 18:17 33.425984 -112.020909 96 1113ft 10kts
15-May-20 18:18 33.426109 -112.020762 0 1113ft 0kts
15-May-20 18:19 33.426109 -112.020762 1 1113ft 0kts
15-May-20 18:20 33.426109 -112.020762 1 1113ft 0kts
15-May-20 18:21 33.426109 -112.020762 1 1113ft 0kts

Navigation Log

Ident Type
Flight plan parsing failed, navigation log unavailable